createdAt,value
2019-03-03T00:02:26.097Z,93.37
2019-03-03T00:04:54.505Z,93.38
2019-03-03T00:07:42.147Z,92.68
2019-03-03T00:10:50.470Z,92.98
2019-03-03T00:13:38.116Z,93.14
2019-03-03T00:16:06.526Z,93.18
2019-03-03T00:18:54.167Z,93.48
2019-03-03T00:21:41.825Z,93.74
2019-03-03T00:24:29.577Z,93.51
2019-03-03T00:26:57.972Z,93.69
2019-03-03T00:29:26.377Z,93.89
2019-03-03T00:31:54.786Z,93.38
2019-03-03T00:34:23.181Z,93.48
2019-03-03T00:37:10.706Z,92.97
2019-03-03T00:40:17.492Z,93.14
2019-03-03T00:43:05.006Z,92.76
2019-03-03T00:51:06.978Z,91.08
2019-03-03T00:53:54.497Z,90.84
2019-03-03T00:59:17.363Z,90.23
2019-03-03T01:04:43.884Z,89.70
2019-03-03T01:07:31.411Z,89.03
2019-03-03T01:10:18.931Z,88.25
2019-03-03T01:13:25.709Z,87.63
2019-03-03T01:16:13.225Z,86.36
2019-03-03T01:22:09.096Z,86.26
2019-03-03T01:24:56.612Z,86.57
2019-03-03T01:32:53.477Z,85.86
2019-03-03T01:35:21.872Z,86.16
2019-03-03T01:38:09.651Z,85.75
2019-03-03T01:40:57.178Z,85.35
2019-03-03T01:43:44.694Z,85.06
2019-03-03T01:48:47.100Z,83.97
2019-03-03T01:51:15.504Z,83.82
2019-03-03T01:53:43.966Z,83.49
2019-03-03T01:56:31.714Z,83.42
2019-03-03T01:59:19.224Z,83.13
2019-03-03T02:01:47.638Z,83.00
2019-03-03T02:07:22.724Z,82.16
2019-03-03T02:18:08.693Z,81.66
2019-03-03T02:24:25.077Z,81.97
2019-03-03T02:26:53.480Z,82.03
2019-03-03T02:29:41.125Z,81.04
2019-03-03T02:32:28.730Z,80.86
2019-03-03T02:35:16.372Z,80.92
2019-03-03T02:38:24.684Z,80.84
2019-03-03T02:44:20.454Z,81.04
2019-03-03T02:46:48.837Z,80.85
2019-03-03T02:52:11.037Z,80.26
2019-03-03T02:54:39.436Z,80.32
2019-03-03T02:57:27.180Z,80.49
2019-03-03T03:00:14.696Z,80.54
2019-03-03T03:06:02.012Z,80.71
2019-03-03T03:11:28.265Z,81.24
2019-03-03T03:14:35.036Z,81.19
2019-03-03T03:17:22.551Z,81.11
2019-03-03T03:20:10.067Z,81.08
2019-03-03T03:22:57.588Z,81.66
2019-03-03T03:25:45.096Z,81.73
2019-03-03T03:31:27.379Z,80.83
2019-03-03T03:34:14.890Z,80.37
2019-03-03T03:37:02.400Z,80.63
2019-03-03T03:39:49.921Z,80.35
2019-03-03T03:42:37.437Z,80.29
2019-03-03T03:45:45.772Z,80.89
2019-03-03T03:48:33.292Z,80.59
2019-03-03T03:51:20.805Z,80.64
2019-03-03T03:57:02.889Z,80.66
2019-03-03T03:59:50.391Z,80.73
2019-03-03T04:02:57.160Z,81.24
2019-03-03T04:05:44.689Z,80.84
2019-03-03T04:11:26.887Z,80.41
2019-03-03T04:17:09.275Z,79.95
2019-03-03T04:19:56.792Z,80.24
2019-03-03T04:22:44.305Z,80.10
2019-03-03T04:25:31.839Z,79.70
2019-03-03T04:28:19.361Z,80.02
2019-03-03T04:31:06.886Z,79.87
2019-03-03T04:33:54.399Z,79.98
2019-03-03T04:42:09.971Z,78.78
2019-03-03T04:45:18.284Z,78.38
2019-03-03T04:48:05.791Z,78.52
2019-03-03T04:50:53.317Z,78.04
2019-03-03T04:53:40.826Z,78.04
2019-03-03T04:59:07.296Z,78.05
2019-03-03T05:01:54.812Z,78.08
2019-03-03T05:04:42.330Z,78.23
2019-03-03T05:07:29.844Z,78.05
2019-03-03T05:10:17.372Z,78.47
2019-03-03T05:13:04.875Z,78.92
2019-03-03T05:15:52.402Z,78.62
2019-03-03T05:21:29.135Z,78.04
2019-03-03T05:24:16.955Z,79.15
2019-03-03T05:27:04.643Z,79.18
2019-03-03T05:29:33.009Z,79.78
2019-03-03T05:32:20.667Z,81.82
2019-03-03T05:37:36.509Z,83.12
2019-03-03T05:43:05.937Z,84.13
2019-03-03T05:45:53.455Z,83.80
2019-03-03T05:48:40.962Z,84.54
2019-03-03T05:51:28.486Z,85.10
2019-03-03T05:56:44.328Z,86.28
2019-03-03T05:59:12.725Z,86.42
2019-03-03T06:01:41.127Z,86.28
2019-03-03T06:04:28.854Z,87.46
2019-03-03T06:07:16.508Z,87.33
2019-03-03T06:10:04.018Z,87.75
2019-03-03T06:12:51.667Z,88.56
2019-03-03T06:15:39.312Z,88.69
2019-03-03T06:18:26.831Z,89.53
2019-03-03T06:21:14.487Z,90.44
2019-03-03T06:24:01.994Z,90.92
2019-03-03T06:26:30.406Z,90.93
2019-03-03T06:28:58.802Z,91.06
2019-03-03T06:31:46.369Z,91.64
2019-03-03T06:34:14.763Z,91.69
2019-03-03T06:36:43.181Z,92.67
2019-03-03T06:41:59.094Z,92.86
2019-03-03T06:49:48.731Z,93.85
2019-03-03T06:52:36.501Z,94.44
2019-03-03T06:55:44.830Z,95.02
2019-03-03T06:58:13.317Z,95.67
2019-03-03T07:00:41.721Z,96.32
2019-03-03T07:05:43.884Z,96.38
2019-03-03T07:10:46.321Z,96.75
2019-03-03T07:13:34.004Z,96.91
2019-03-03T07:16:02.415Z,96.35
2019-03-03T07:18:50.095Z,96.42
2019-03-03T07:21:18.546Z,97.61
2019-03-03T07:23:46.973Z,98.04
2019-03-03T07:26:34.643Z,98.48
2019-03-03T07:29:03.067Z,98.98
2019-03-03T07:34:18.927Z,98.77
2019-03-03T07:36:47.341Z,99.04
2019-03-03T07:39:55.740Z,98.64
2019-03-03T07:42:24.200Z,98.92
2019-03-03T07:45:11.928Z,98.75
2019-03-03T07:47:40.458Z,98.60
2019-03-03T07:50:48.815Z,99.13
2019-03-03T07:53:17.285Z,99.51
2019-03-03T07:56:04.854Z,99.60
2019-03-03T07:58:33.329Z,99.04
2019-03-03T08:01:21.005Z,99.29
2019-03-03T08:03:49.445Z,99.40
2019-03-03T08:06:17.884Z,99.35
2019-03-03T08:08:46.412Z,98.57
2019-03-03T08:14:02.291Z,98.61
2019-03-03T08:16:50.001Z,98.31
2019-03-03T08:21:52.580Z,98.70
2019-03-03T08:27:14.580Z,98.87
2019-03-03T08:30:02.163Z,98.72
2019-03-03T08:32:49.923Z,99.28
2019-03-03T08:35:37.786Z,99.47
2019-03-03T08:38:25.355Z,99.53
2019-03-03T08:40:53.776Z,99.36
2019-03-03T08:43:41.346Z,99.45
2019-03-03T08:46:28.894Z,100.00
2019-03-03T08:49:35.749Z,100.00
2019-03-03T08:52:23.350Z,100.00
2019-03-03T08:57:46.395Z,99.72
2019-03-03T09:00:54.735Z,99.93
2019-03-03T09:03:42.398Z,99.65
2019-03-03T09:09:19.110Z,99.92
2019-03-03T09:12:06.675Z,99.68
2019-03-03T09:20:45.375Z,99.17
2019-03-03T09:26:22.069Z,99.32
2019-03-03T09:34:43.867Z,99.28
2019-03-03T09:37:50.711Z,98.95
2019-03-03T09:40:38.257Z,98.66
2019-03-03T09:46:14.864Z,97.64
2019-03-03T09:49:21.661Z,97.12
2019-03-03T09:58:12.162Z,96.58
2019-03-03T10:01:19.192Z,95.97
2019-03-03T10:04:06.812Z,94.99
2019-03-03T10:06:54.429Z,95.76
2019-03-03T10:09:42.050Z,95.37
2019-03-03T10:12:29.620Z,95.31
2019-03-03T10:15:17.215Z,94.46
2019-03-03T10:21:13.163Z,94.23
2019-03-03T10:24:00.745Z,94.87
2019-03-03T10:29:23.819Z,95.35
2019-03-03T10:32:11.405Z,95.54
2019-03-03T10:40:42.593Z,95.14
2019-03-03T10:43:30.103Z,95.21
2019-03-03T10:46:17.639Z,96.08
2019-03-03T10:49:05.143Z,96.16
2019-03-03T10:51:52.670Z,95.52
2019-03-03T10:54:59.436Z,95.76
2019-03-03T10:57:46.961Z,95.46
2019-03-03T11:00:55.295Z,95.40
2019-03-03T11:04:03.601Z,95.34
2019-03-03T11:09:47.245Z,96.00
2019-03-03T11:15:18.171Z,95.95
2019-03-03T11:17:59.428Z,95.82
2019-03-03T11:23:36.028Z,96.79
2019-03-03T11:26:44.346Z,96.67
2019-03-03T11:34:59.876Z,96.27
2019-03-03T11:37:47.403Z,95.76
2019-03-03T11:43:42.984Z,96.23
2019-03-03T11:46:30.497Z,96.09
2019-03-03T11:59:58.740Z,95.72
2019-03-03T12:02:53.805Z,96.00
2019-03-03T12:05:35.497Z,95.57
2019-03-03T12:08:23.021Z,95.92
2019-03-03T12:11:29.793Z,95.96
2019-03-03T12:14:17.314Z,95.18
2019-03-03T12:17:04.823Z,95.28
2019-03-03T12:20:11.595Z,95.17
2019-03-03T12:22:59.117Z,95.55
2019-03-03T12:25:46.629Z,96.08
2019-03-03T12:28:34.148Z,96.37
2019-03-03T12:31:21.662Z,95.64
2019-03-03T12:34:28.436Z,96.38
2019-03-03T12:37:15.949Z,96.65
2019-03-03T12:40:03.473Z,96.31
2019-03-03T12:42:50.995Z,95.98
2019-03-03T12:45:38.512Z,95.73
2019-03-03T12:48:26.042Z,95.71
2019-03-03T12:51:13.561Z,96.09
2019-03-03T12:56:36.455Z,97.09
2019-03-03T12:59:44.767Z,97.56
2019-03-03T13:02:51.539Z,97.39
2019-03-03T13:05:39.055Z,96.95
2019-03-03T13:08:26.576Z,96.84
2019-03-03T13:14:03.182Z,96.92
2019-03-03T13:16:50.687Z,97.13
2019-03-03T13:19:38.216Z,97.66
2019-03-03T13:22:25.726Z,97.08
2019-03-03T13:25:32.504Z,96.75
2019-03-03T13:31:09.103Z,96.66
2019-03-03T13:36:50.944Z,96.56
2019-03-03T13:42:43.862Z,96.46
2019-03-03T13:45:52.172Z,96.26
2019-03-03T13:48:20.578Z,96.68
2019-03-03T13:51:08.216Z,96.83
2019-03-03T13:56:24.055Z,96.91
2019-03-03T13:58:52.447Z,97.31
2019-03-03T14:04:15.829Z,97.25
2019-03-03T14:07:03.479Z,96.82
2019-03-03T14:09:31.869Z,97.02
2019-03-03T14:12:19.520Z,96.94
2019-03-03T14:17:22.349Z,97.59
2019-03-03T14:20:30.735Z,97.42
2019-03-03T14:22:59.136Z,97.66
2019-03-03T14:25:46.657Z,97.19
2019-03-03T14:28:15.052Z,97.98
2019-03-03T14:31:02.704Z,97.97
2019-03-03T14:33:50.343Z,97.63
2019-03-03T14:36:37.873Z,97.40
2019-03-03T14:39:46.181Z,97.32
2019-03-03T14:42:33.833Z,97.22
2019-03-03T14:45:21.488Z,97.14
2019-03-03T14:47:49.883Z,96.97
2019-03-03T14:50:58.199Z,97.24
2019-03-03T14:53:26.591Z,96.91
2019-03-03T14:55:54.999Z,96.57
2019-03-03T14:58:23.455Z,97.03
2019-03-03T15:01:11.085Z,96.76
2019-03-03T15:03:58.841Z,97.07
2019-03-03T15:06:27.297Z,97.53
2019-03-03T15:08:55.752Z,97.46
2019-03-03T15:11:43.678Z,97.48
2019-03-03T15:14:12.101Z,97.54
2019-03-03T15:16:40.540Z,97.34
2019-03-03T15:21:56.637Z,97.09
2019-03-03T15:24:25.115Z,97.04
2019-03-03T15:29:48.284Z,97.05
2019-03-03T15:32:16.761Z,97.62
2019-03-03T15:35:04.485Z,97.58
2019-03-03T15:37:33.198Z,97.26
2019-03-03T15:40:20.946Z,96.54
2019-03-03T15:43:08.644Z,96.31
2019-03-03T15:48:43.723Z,95.93
2019-03-03T15:54:47.104Z,96.64
2019-03-03T15:57:15.544Z,96.99
2019-03-03T16:00:03.332Z,97.56
2019-03-03T16:02:31.767Z,97.36
2019-03-03T16:05:00.312Z,97.69
2019-03-03T16:07:48.020Z,97.73
2019-03-03T16:10:56.339Z,97.23
2019-03-03T16:13:44.046Z,97.86
2019-03-03T16:19:19.071Z,97.79
2019-03-03T16:21:47.494Z,97.75
2019-03-03T16:24:35.343Z,97.57
2019-03-03T16:27:03.819Z,97.50
2019-03-03T16:29:32.283Z,97.51
2019-03-03T16:32:20.036Z,98.17
2019-03-03T16:34:48.448Z,97.74
2019-03-03T16:37:16.888Z,98.03
2019-03-03T16:40:25.382Z,97.86
2019-03-03T16:42:53.869Z,98.27
2019-03-03T16:46:02.202Z,97.50
2019-03-03T16:48:49.971Z,97.65
2019-03-03T16:51:18.390Z,97.46
2019-03-03T16:53:46.813Z,97.43
2019-03-03T16:56:34.326Z,97.33
2019-03-03T16:59:21.882Z,97.76
2019-03-03T17:01:50.326Z,97.47
2019-03-03T17:04:37.853Z,98.23
2019-03-03T17:09:40.786Z,98.92
2019-03-03T17:12:28.473Z,99.26
2019-03-03T17:15:16.042Z,99.15
2019-03-03T17:18:24.419Z,98.76
2019-03-03T17:21:11.961Z,98.50
2019-03-03T17:23:40.533Z,99.34
2019-03-03T17:26:48.889Z,99.76
2019-03-03T17:29:36.468Z,99.74
2019-03-03T17:32:24.184Z,99.37
2019-03-03T17:34:52.680Z,99.10
2019-03-03T17:37:40.397Z,98.57
2019-03-03T17:40:48.746Z,98.51
2019-03-03T17:43:17.197Z,98.98
2019-03-03T17:48:33.060Z,99.00
2019-03-03T17:53:48.947Z,99.38
2019-03-03T17:56:36.748Z,98.70
2019-03-03T17:59:45.109Z,98.31
2019-03-03T18:02:32.635Z,98.71
2019-03-03T18:05:20.197Z,98.77
2019-03-03T18:13:10.307Z,98.19
2019-03-03T18:15:57.968Z,98.18
2019-03-03T18:18:26.403Z,98.20
2019-03-03T18:20:54.827Z,98.15
2019-03-03T18:23:42.381Z,97.36
2019-03-03T18:28:58.319Z,96.66
2019-03-03T18:31:46.131Z,97.21
2019-03-03T18:34:54.525Z,96.74
2019-03-03T18:37:22.876Z,96.76
2019-03-03T18:39:51.356Z,95.87
2019-03-03T18:42:19.801Z,95.04
2019-03-03T18:45:28.177Z,95.02
2019-03-03T18:47:56.576Z,95.20
2019-03-03T18:51:05.031Z,95.64
2019-03-03T18:53:33.870Z,96.04
2019-03-03T18:56:02.395Z,96.11
2019-03-03T18:58:30.895Z,96.42
2019-03-03T19:01:18.555Z,95.88
2019-03-03T19:04:06.213Z,95.73
2019-03-03T19:06:35.042Z,95.47
2019-03-03T19:09:44.649Z,94.65
2019-03-03T19:12:13.049Z,94.28
2019-03-03T19:14:41.469Z,93.94
2019-03-03T19:17:29.115Z,93.92
2019-03-03T19:19:57.524Z,93.94
2019-03-03T19:22:45.173Z,93.38
2019-03-03T19:25:53.746Z,92.55
2019-03-03T19:28:22.144Z,92.79
2019-03-03T19:31:09.849Z,92.78
2019-03-03T19:33:58.078Z,92.15
2019-03-03T19:36:26.503Z,91.95
2019-03-03T19:42:08.191Z,91.54
2019-03-03T19:44:55.718Z,91.12
2019-03-03T19:48:04.033Z,90.57
2019-03-03T19:50:32.435Z,90.40
2019-03-03T19:53:20.086Z,90.04
2019-03-03T19:59:02.033Z,89.64
2019-03-03T20:04:24.225Z,89.55
2019-03-03T20:06:52.633Z,89.89
2019-03-03T20:10:00.948Z,89.93
2019-03-03T20:12:48.597Z,90.25
2019-03-03T20:15:36.428Z,89.84
2019-03-03T20:18:44.739Z,90.01
2019-03-03T20:23:47.464Z,89.04
2019-03-03T20:26:35.038Z,88.98
2019-03-03T20:32:11.612Z,88.10
2019-03-03T20:34:40.030Z,87.62
2019-03-03T20:37:08.473Z,87.10
2019-03-03T20:39:56.145Z,86.57
2019-03-03T20:42:24.579Z,85.91
2019-03-03T20:45:12.134Z,86.52
2019-03-03T20:47:40.554Z,86.62
2019-03-03T20:50:48.880Z,87.25
2019-03-03T20:53:36.523Z,86.34
2019-03-03T20:56:24.281Z,85.58
2019-03-03T21:01:40.121Z,85.16
2019-03-03T21:04:08.515Z,84.78
2019-03-03T21:06:56.248Z,84.76
2019-03-03T21:09:24.718Z,84.64
2019-03-03T21:12:12.257Z,84.44
2019-03-03T21:14:59.901Z,84.00
2019-03-03T21:17:28.310Z,83.55
2019-03-03T21:19:56.751Z,83.26
2019-03-03T21:22:25.242Z,83.50
2019-03-03T21:24:53.644Z,84.18
2019-03-03T21:27:22.056Z,83.68
2019-03-03T21:29:50.477Z,83.62
2019-03-03T21:32:45.221Z,83.79
2019-03-03T21:38:21.896Z,84.06
2019-03-03T21:40:50.342Z,84.25
2019-03-03T21:43:20.881Z,83.87
2019-03-03T21:45:48.867Z,83.13
2019-03-03T21:48:17.279Z,82.72
2019-03-03T21:51:04.936Z,82.46
2019-03-03T21:53:52.448Z,82.83
2019-03-03T21:56:20.882Z,82.79
2019-03-03T21:59:08.423Z,82.65
2019-03-03T22:01:36.828Z,82.58
2019-03-03T22:04:45.135Z,82.66
2019-03-03T22:07:13.958Z,82.45
2019-03-03T22:09:43.718Z,82.46
2019-03-03T22:12:12.179Z,82.25
2019-03-03T22:14:40.617Z,81.98
2019-03-03T22:17:28.388Z,82.81
2019-03-03T22:23:44.756Z,85.49
2019-03-03T22:26:13.165Z,86.33
2019-03-03T22:28:41.596Z,86.56
2019-03-03T22:31:10.046Z,85.94
2019-03-03T22:33:57.702Z,85.81
2019-03-03T22:36:26.103Z,85.48
2019-03-03T22:38:54.545Z,85.22
2019-03-03T22:41:42.217Z,84.38
2019-03-03T22:44:29.897Z,84.04
2019-03-03T22:46:58.345Z,83.70
2019-03-03T22:49:45.984Z,83.18
2019-03-03T22:52:33.546Z,83.20
2019-03-03T22:55:21.206Z,82.85
2019-03-03T22:58:08.891Z,82.51
2019-03-03T23:01:17.278Z,82.65
2019-03-03T23:04:24.267Z,82.05
2019-03-03T23:07:32.668Z,82.49
2019-03-03T23:10:40.994Z,82.66
2019-03-03T23:13:49.331Z,82.48
2019-03-03T23:16:57.642Z,82.52
2019-03-03T23:20:05.988Z,81.82
2019-03-03T23:23:12.994Z,81.63
2019-03-03T23:26:00.724Z,81.94
2019-03-03T23:28:48.376Z,81.92
2019-03-03T23:31:16.769Z,82.10
2019-03-03T23:36:19.473Z,81.77
2019-03-03T23:39:07.120Z,81.53
2019-03-03T23:41:54.628Z,81.23
2019-03-03T23:44:23.034Z,81.15
2019-03-03T23:46:51.436Z,81.35
2019-03-03T23:51:53.449Z,80.97
2019-03-03T23:54:21.857Z,80.99
2019-03-03T23:57:09.366Z,81.25
2019-03-03T23:59:37.767Z,81.21
